createdAt,value
2023-01-18T00:00:42.654Z,100.00
2023-01-18T00:05:46.744Z,100.00
2023-01-18T00:10:49.487Z,100.00
2023-01-18T00:15:52.259Z,100.00
2023-01-18T00:20:56.436Z,100.00
2023-01-18T00:26:02.781Z,100.00
2023-01-18T00:31:10.290Z,100.00
2023-01-18T00:36:15.354Z,100.00
2023-01-18T00:41:18.193Z,100.00
2023-01-18T00:46:23.287Z,100.00
2023-01-18T00:51:27.399Z,99.63
2023-01-18T00:56:30.143Z,100.00
2023-01-18T01:01:32.979Z,97.68
2023-01-18T01:06:46.963Z,97.23
2023-01-18T01:12:08.123Z,98.54
2023-01-18T01:17:28.245Z,98.27
2023-01-18T01:22:49.844Z,96.93
2023-01-18T01:27:53.017Z,96.39
2023-01-18T01:32:56.111Z,96.95
2023-01-18T01:38:00.342Z,97.06
2023-01-18T01:43:03.077Z,97.11
2023-01-18T01:48:06.576Z,94.58
2023-01-18T01:53:12.461Z,92.15
2023-01-18T01:58:19.285Z,91.85
2023-01-18T02:03:24.113Z,92.87
2023-01-18T02:08:29.659Z,94.77
2023-01-18T02:13:32.682Z,95.57
2023-01-18T02:18:45.341Z,96.68
2023-01-18T02:24:22.468Z,97.04
2023-01-18T02:29:44.987Z,95.96
2023-01-18T02:34:50.450Z,97.73
2023-01-18T02:40:06.075Z,97.32
2023-01-18T02:45:35.816Z,98.92
2023-01-18T02:50:38.772Z,100.00
2023-01-18T02:55:45.331Z,100.00
2023-01-18T03:00:54.170Z,100.00
2023-01-18T03:06:01.648Z,100.00
2023-01-18T03:11:08.728Z,100.00
2023-01-18T03:16:19.632Z,100.00
2023-01-18T03:21:22.424Z,100.00
2023-01-18T03:26:26.176Z,100.00
2023-01-18T03:31:57.014Z,100.00
2023-01-18T03:37:04.588Z,100.00
2023-01-18T03:42:13.111Z,100.00
2023-01-18T03:47:17.399Z,100.00
2023-01-18T03:52:25.521Z,100.00
2023-01-18T03:57:34.922Z,100.00
2023-01-18T04:02:39.457Z,100.00
2023-01-18T04:07:42.787Z,100.00
2023-01-18T04:12:45.562Z,100.00
2023-01-18T04:17:53.211Z,100.00
2023-01-18T04:22:56.691Z,100.00
2023-01-18T04:27:59.673Z,100.00
2023-01-18T04:33:03.772Z,100.00
2023-01-18T04:38:06.522Z,100.00
2023-01-18T04:43:09.460Z,100.00
2023-01-18T04:48:13.723Z,100.00
2023-01-18T04:53:16.768Z,100.00
2023-01-18T04:58:19.849Z,100.00
2023-01-18T05:03:24.357Z,100.00
2023-01-18T05:08:27.139Z,100.00
2023-01-18T05:13:30.131Z,100.00
2023-01-18T05:18:34.649Z,100.00
2023-01-18T05:23:38.884Z,100.00
2023-01-18T05:28:43.021Z,100.00
2023-01-18T05:33:47.141Z,100.00
2023-01-18T05:38:50.079Z,100.00
2023-01-18T05:43:52.888Z,100.00
2023-01-18T05:48:58.490Z,100.00
2023-01-18T05:54:01.266Z,100.00
2023-01-18T05:59:04.088Z,100.00
2023-01-18T06:04:08.458Z,100.00
2023-01-18T06:09:11.639Z,100.00
2023-01-18T06:14:14.553Z,100.00
2023-01-18T06:19:18.785Z,99.73
2023-01-18T06:24:21.568Z,99.35
2023-01-18T06:29:24.568Z,98.80
2023-01-18T06:34:30.368Z,99.02
2023-01-18T06:39:33.276Z,98.79
2023-01-18T06:44:36.036Z,99.06
2023-01-18T06:49:40.208Z,100.00
2023-01-18T06:54:43.014Z,100.00
2023-01-18T06:59:45.727Z,100.00
2023-01-18T07:04:49.826Z,99.92
2023-01-18T07:09:52.593Z,100.00
2023-01-18T07:14:55.353Z,100.00
2023-01-18T07:19:59.551Z,99.41
2023-01-18T07:25:02.320Z,99.19
2023-01-18T07:30:05.814Z,98.59
2023-01-18T07:35:10.364Z,98.75
2023-01-18T07:40:15.409Z,98.42
2023-01-18T07:45:18.500Z,97.82
2023-01-18T07:50:22.896Z,97.58
2023-01-18T07:55:26.033Z,97.88
2023-01-18T08:00:29.580Z,98.65
2023-01-18T08:05:34.540Z,98.87
2023-01-18T08:10:38.615Z,98.41
2023-01-18T08:15:41.755Z,96.35
2023-01-18T08:20:46.388Z,95.08
2023-01-18T08:25:49.627Z,94.83
2023-01-18T08:30:52.566Z,94.94
2023-01-18T08:35:56.693Z,92.65
2023-01-18T08:41:02.815Z,91.66
2023-01-18T08:46:05.727Z,90.40
2023-01-18T08:51:11.123Z,88.94
2023-01-18T08:56:14.062Z,89.29
2023-01-18T09:01:16.992Z,88.47
2023-01-18T09:06:21.131Z,88.42
2023-01-18T09:11:24.504Z,87.53
2023-01-18T09:16:27.376Z,87.28
2023-01-18T09:21:31.536Z,84.92
2023-01-18T09:26:34.323Z,85.17
2023-01-18T09:31:37.529Z,83.48
2023-01-18T09:36:42.164Z,82.62
2023-01-18T09:41:47.428Z,82.13
2023-01-18T09:46:54.604Z,81.27
2023-01-18T09:52:13.242Z,81.38
2023-01-18T09:57:23.258Z,79.50
2023-01-18T10:02:30.921Z,87.85
2023-01-18T10:07:38.321Z,82.78
2023-01-18T10:12:47.798Z,81.60
2023-01-18T10:17:53.720Z,80.74
2023-01-18T10:23:02.798Z,79.72
2023-01-18T10:28:29.285Z,79.46
2023-01-18T10:33:38.276Z,79.89
2023-01-18T10:38:43.016Z,79.84
2023-01-18T10:43:46.281Z,78.99
2023-01-18T10:48:51.534Z,77.25
2023-01-18T10:53:55.770Z,80.30
2023-01-18T10:59:00.781Z,80.28
2023-01-18T11:04:07.527Z,78.32
2023-01-18T11:09:41.976Z,76.44
2023-01-18T11:14:45.250Z,77.37
2023-01-18T11:19:48.792Z,78.78
2023-01-18T11:24:54.317Z,78.81
2023-01-18T11:29:57.158Z,78.07
2023-01-18T11:35:00.905Z,78.76
2023-01-18T11:40:29.581Z,80.27
2023-01-18T11:45:36.747Z,80.32
2023-01-18T11:50:43.297Z,81.98
2023-01-18T11:55:56.443Z,81.94
2023-01-18T12:01:29.012Z,80.44
2023-01-18T12:06:42.462Z,80.63
2023-01-18T12:12:17.291Z,81.63
2023-01-18T12:17:37.727Z,79.71
2023-01-18T12:23:05.495Z,80.60
2023-01-18T12:28:17.731Z,81.30
2023-01-18T12:33:43.501Z,82.12
2023-01-18T12:38:52.012Z,81.72
2023-01-18T12:44:22.241Z,80.28
2023-01-18T12:49:29.301Z,78.87
2023-01-18T12:54:38.531Z,78.30
2023-01-18T12:59:47.518Z,78.60
2023-01-18T13:04:55.816Z,80.66
2023-01-18T13:09:59.281Z,78.52
2023-01-18T13:15:15.077Z,77.71
2023-01-18T13:20:21.130Z,78.55
2023-01-18T13:25:41.492Z,76.86
2023-01-18T13:30:53.900Z,76.96
2023-01-18T13:35:59.801Z,75.65
2023-01-18T13:41:05.394Z,75.77
2023-01-18T13:46:21.947Z,74.90
2023-01-18T13:51:52.004Z,74.43
2023-01-18T13:57:17.273Z,74.14
2023-01-18T14:02:27.624Z,75.45
2023-01-18T14:07:36.576Z,75.68
2023-01-18T14:12:47.398Z,76.53
2023-01-18T14:17:58.656Z,77.75
2023-01-18T14:23:13.342Z,78.87
2023-01-18T14:28:18.602Z,79.44
2023-01-18T14:33:27.101Z,79.71
2023-01-18T14:38:30.594Z,81.06
2023-01-18T14:43:36.007Z,81.67
2023-01-18T14:48:48.548Z,82.09
2023-01-18T14:53:54.789Z,82.89
2023-01-18T14:58:59.504Z,83.98
2023-01-18T15:04:07.302Z,84.17
2023-01-18T15:09:11.555Z,86.20
2023-01-18T15:14:19.423Z,86.42
2023-01-18T15:19:30.114Z,88.18
2023-01-18T15:24:39.885Z,87.39
2023-01-18T15:29:48.326Z,88.58
2023-01-18T15:34:54.237Z,86.80
2023-01-18T15:40:00.914Z,85.03
2023-01-18T15:45:04.446Z,86.50
2023-01-18T15:50:19.817Z,87.12
2023-01-18T15:55:27.060Z,89.28
2023-01-18T16:00:32.941Z,89.59
2023-01-18T16:05:37.268Z,91.12
2023-01-18T16:10:49.966Z,90.66
2023-01-18T16:16:09.339Z,91.14
2023-01-18T16:21:21.057Z,90.81
2023-01-18T16:26:30.397Z,89.50
2023-01-18T16:31:34.272Z,89.67
2023-01-18T16:36:42.668Z,92.03
2023-01-18T16:41:51.822Z,93.21
2023-01-18T16:46:54.850Z,95.48
2023-01-18T16:51:59.846Z,94.09
2023-01-18T16:57:02.685Z,95.48
2023-01-18T17:02:05.736Z,94.15
2023-01-18T17:07:11.237Z,93.58
2023-01-18T17:12:13.994Z,94.00
2023-01-18T17:17:17.254Z,93.89
2023-01-18T17:22:21.347Z,93.68
2023-01-18T17:27:24.261Z,94.29
2023-01-18T17:37:34.096Z,95.28
2023-01-18T17:42:37.004Z,96.10
2023-01-18T17:47:39.940Z,95.79
2023-01-18T17:52:44.077Z,94.60
2023-01-18T17:57:47.011Z,94.98
2023-01-18T18:02:52.081Z,94.90
2023-01-18T18:07:56.171Z,95.67
2023-01-18T18:12:59.700Z,95.07
2023-01-18T18:18:04.052Z,95.75
2023-01-18T18:23:10.228Z,95.35
2023-01-18T18:28:13.696Z,95.19
2023-01-18T18:33:17.063Z,95.36
2023-01-18T18:38:23.005Z,95.32
2023-01-18T18:43:25.839Z,95.28
2023-01-18T18:48:28.600Z,95.47
2023-01-18T18:53:38.255Z,95.57
2023-01-18T18:58:42.295Z,95.03
2023-01-18T19:03:46.823Z,94.55
2023-01-18T19:08:51.103Z,95.32
2023-01-18T19:13:55.731Z,94.16
2023-01-18T19:18:58.488Z,95.03
2023-01-18T19:24:02.812Z,95.44
2023-01-18T19:29:05.753Z,94.54
2023-01-18T19:34:08.660Z,95.40
2023-01-18T19:39:21.905Z,95.28
2023-01-18T19:44:25.179Z,95.03
2023-01-18T19:49:28.411Z,94.38
2023-01-18T19:54:32.624Z,93.66
2023-01-18T19:59:35.449Z,93.11
2023-01-18T20:04:38.250Z,92.98
2023-01-18T20:09:43.673Z,93.91
2023-01-18T20:14:46.860Z,94.18
2023-01-18T20:19:51.111Z,94.14
2023-01-18T20:24:55.583Z,94.34
2023-01-18T20:29:59.103Z,94.73
2023-01-18T20:35:01.952Z,94.00
2023-01-18T20:40:07.140Z,92.70
2023-01-18T20:45:10.648Z,92.32
2023-01-18T20:50:13.441Z,92.57
2023-01-18T20:55:22.091Z,92.74
2023-01-18T21:00:28.710Z,92.28
2023-01-18T21:05:31.984Z,91.36
2023-01-18T21:10:39.695Z,90.65
2023-01-18T21:15:45.761Z,89.80
2023-01-18T21:20:53.905Z,89.49
2023-01-18T21:26:08.020Z,88.02
2023-01-18T21:31:11.392Z,88.66
2023-01-18T21:36:20.021Z,90.27
2023-01-18T21:41:41.846Z,89.35
2023-01-18T21:46:47.470Z,89.71
2023-01-18T21:52:07.918Z,89.70
2023-01-18T21:57:14.048Z,89.61
2023-01-18T22:02:17.078Z,89.85
2023-01-18T22:07:20.030Z,89.79
2023-01-18T22:12:24.591Z,87.53
2023-01-18T22:17:27.588Z,88.61
2023-01-18T22:22:31.853Z,87.68
2023-01-18T22:27:36.894Z,87.89
2023-01-18T22:32:41.856Z,87.77
2023-01-18T22:37:47.835Z,87.88
2023-01-18T22:42:52.007Z,87.33
2023-01-18T22:47:56.789Z,89.37
2023-01-18T22:52:59.529Z,92.17
2023-01-18T22:58:03.947Z,96.39
2023-01-18T23:03:07.012Z,97.48
2023-01-18T23:08:14.972Z,100.00
2023-01-18T23:13:19.128Z,100.00
2023-01-18T23:18:22.105Z,100.00
2023-01-18T23:23:25.052Z,98.64
2023-01-18T23:28:41.124Z,98.28
2023-01-18T23:33:44.428Z,96.73
2023-01-18T23:39:04.636Z,96.32
2023-01-18T23:44:26.702Z,95.64
2023-01-18T23:49:47.112Z,93.95
2023-01-18T23:54:49.876Z,92.32
2023-01-18T23:59:54.254Z,90.16
